Aviation Digital Data Service (ADDS)

Output produced by METARs form (2125 UTC 20 April 2014)
found at http://aviationweather.gov/adds/metars/
 
KGNV 201732Z 2018/2118 31010G15KT P6SM OVC015 
     FM210000 01010KT P6SM SCT015 BKN025 
     FM210600 35006KT P6SM FEW015 SCT030 
     FM211400 01010KT P6SM SCT030